createdAt,value
2022-12-05T00:01:53.144Z,4.61
2022-12-05T00:04:33.650Z,4.68
2022-12-05T00:07:02.423Z,4.64
2022-12-05T00:09:31.017Z,4.61
2022-12-05T00:11:59.626Z,4.58
2022-12-05T00:14:28.227Z,4.53
2022-12-05T00:16:58.508Z,4.51
2022-12-05T00:19:27.085Z,4.51
2022-12-05T00:21:59.112Z,4.38
2022-12-05T00:27:24.123Z,4.46
2022-12-05T00:29:52.830Z,4.35
2022-12-05T00:32:21.605Z,4.40
2022-12-05T00:34:50.394Z,4.36
2022-12-05T00:37:19.017Z,4.33
2022-12-05T00:39:47.593Z,4.29
2022-12-05T00:42:17.998Z,4.37
2022-12-05T00:44:46.661Z,4.42
2022-12-05T00:47:15.324Z,4.27
2022-12-05T00:49:44.141Z,4.16
2022-12-05T00:52:12.734Z,4.28
2022-12-05T00:54:41.303Z,4.26
2022-12-05T00:57:16.079Z,4.30
2022-12-05T01:03:55.482Z,4.34
2022-12-05T01:06:26.458Z,4.28
2022-12-05T01:08:56.937Z,4.25
2022-12-05T01:11:27.145Z,4.30
2022-12-05T01:13:56.904Z,4.42
2022-12-05T01:16:30.294Z,4.52
2022-12-05T01:19:00.246Z,4.52
2022-12-05T01:21:29.146Z,4.43
2022-12-05T01:23:58.469Z,4.55
2022-12-05T01:26:27.293Z,4.54
2022-12-05T01:28:56.962Z,4.57
2022-12-05T01:31:28.172Z,4.61
2022-12-05T01:33:59.356Z,4.72
2022-12-05T01:36:29.673Z,4.71
2022-12-05T01:38:58.575Z,4.61
2022-12-05T01:41:32.836Z,4.69
2022-12-05T01:44:07.258Z,4.72
2022-12-05T01:46:38.111Z,4.69
2022-12-05T01:49:12.832Z,4.61
2022-12-05T02:09:59.076Z,4.70
2022-12-05T02:12:28.527Z,4.68
2022-12-05T02:15:21.315Z,4.63
2022-12-05T02:18:26.096Z,4.73
2022-12-05T02:20:57.692Z,4.76
2022-12-05T02:23:45.781Z,4.74
2022-12-05T02:26:44.628Z,4.71
2022-12-05T02:29:47.731Z,4.85
2022-12-05T02:32:34.450Z,4.82
2022-12-05T02:35:08.806Z,4.70
2022-12-05T02:37:40.487Z,4.77
2022-12-05T02:40:23.837Z,4.84
2022-12-05T02:43:03.829Z,4.82
2022-12-05T02:45:35.322Z,4.88
2022-12-05T02:48:05.006Z,4.92
2022-12-05T02:50:36.664Z,4.99
2022-12-05T02:53:13.638Z,4.98
2022-12-05T02:55:43.735Z,4.91
2022-12-05T02:58:21.129Z,4.89
2022-12-05T03:00:51.712Z,4.93
2022-12-05T03:03:23.023Z,4.89
2022-12-05T03:06:00.118Z,4.86
2022-12-05T03:08:34.334Z,4.93
2022-12-05T03:11:04.494Z,4.89
2022-12-05T03:13:36.243Z,4.99
2022-12-05T03:16:07.790Z,5.03
2022-12-05T03:18:39.553Z,5.02
2022-12-05T03:21:32.556Z,5.06
2022-12-05T03:24:13.263Z,5.16
2022-12-05T03:26:44.928Z,5.24
2022-12-05T03:29:30.024Z,5.26
2022-12-05T03:32:10.609Z,5.15
2022-12-05T03:34:48.249Z,5.16
2022-12-05T03:37:48.565Z,5.23
2022-12-05T03:40:44.149Z,5.16
2022-12-05T03:43:23.025Z,5.17
2022-12-05T03:46:11.420Z,5.06
2022-12-05T03:48:51.751Z,4.89
2022-12-05T03:51:22.482Z,4.92
2022-12-05T03:54:09.198Z,4.96
2022-12-05T03:56:40.858Z,4.93
2022-12-05T03:59:12.497Z,5.06
2022-12-05T04:01:43.449Z,5.07
2022-12-05T04:04:17.564Z,4.99
2022-12-05T04:06:49.243Z,4.99
2022-12-05T04:09:20.947Z,5.11
2022-12-05T04:11:55.147Z,4.98
2022-12-05T04:14:35.587Z,4.92
2022-12-05T04:17:09.422Z,4.86
2022-12-05T04:20:01.745Z,4.94
2022-12-05T04:22:31.068Z,4.94
2022-12-05T04:25:20.701Z,4.91
2022-12-05T04:28:00.836Z,4.89
2022-12-05T04:30:31.862Z,4.77
2022-12-05T04:33:22.976Z,4.79
2022-12-05T04:35:57.354Z,4.82
2022-12-05T04:38:40.252Z,4.82
2022-12-05T04:41:11.917Z,4.86
2022-12-05T04:43:42.748Z,4.89
2022-12-05T04:46:14.588Z,4.91
2022-12-05T04:48:46.004Z,4.89
2022-12-05T04:51:17.596Z,4.95
2022-12-05T04:53:48.653Z,4.97
2022-12-05T04:56:19.834Z,4.93
2022-12-05T04:58:48.645Z,4.89
2022-12-05T05:01:20.374Z,5.00
2022-12-05T05:04:00.877Z,4.97
2022-12-05T05:06:30.833Z,4.98
2022-12-05T05:09:00.149Z,4.86
2022-12-05T05:11:30.939Z,4.88
2022-12-05T05:14:00.100Z,4.87
2022-12-05T05:16:38.002Z,5.06
2022-12-05T05:19:08.673Z,4.98
2022-12-05T05:21:40.078Z,5.03
2022-12-05T05:24:10.242Z,5.12
2022-12-05T05:26:41.674Z,5.15
2022-12-05T05:29:11.331Z,5.09
2022-12-05T05:31:42.013Z,5.06
2022-12-05T05:34:12.073Z,5.14
2022-12-05T05:36:40.755Z,5.11
2022-12-05T05:39:12.571Z,5.19
2022-12-05T05:41:41.881Z,5.23
2022-12-05T05:44:10.580Z,5.24
2022-12-05T05:46:39.401Z,5.16
2022-12-05T05:49:08.156Z,5.14
2022-12-05T05:51:38.341Z,5.17
2022-12-05T05:54:07.071Z,5.17
2022-12-05T05:56:37.660Z,5.25
2022-12-05T05:59:06.753Z,5.42
2022-12-05T06:01:35.368Z,5.37
2022-12-05T06:04:04.329Z,5.37
2022-12-05T06:06:34.136Z,5.28
2022-12-05T06:09:02.729Z,5.40
2022-12-05T06:11:32.415Z,5.25
2022-12-05T06:14:02.872Z,5.25
2022-12-05T06:16:34.026Z,5.31
2022-12-05T06:19:02.676Z,5.23
2022-12-05T06:21:35.760Z,5.34
2022-12-05T06:24:04.603Z,5.39
2022-12-05T06:26:36.204Z,5.41
2022-12-05T06:29:06.433Z,5.44
2022-12-05T06:31:35.309Z,5.50
2022-12-05T06:37:08.828Z,5.48
2022-12-05T06:39:38.691Z,5.44
2022-12-05T06:42:08.376Z,5.49
2022-12-05T06:44:40.555Z,5.51
2022-12-05T06:47:09.600Z,5.64
2022-12-05T06:49:38.487Z,5.80
2022-12-05T06:52:07.155Z,5.76
2022-12-05T06:54:39.828Z,5.97
2022-12-05T06:57:08.690Z,5.88
2022-12-05T06:59:37.304Z,5.95
2022-12-05T07:02:10.004Z,5.59
2022-12-05T07:04:47.184Z,5.80
2022-12-05T07:07:20.041Z,5.87
2022-12-05T07:09:54.787Z,5.87
2022-12-05T07:12:26.997Z,5.66
2022-12-05T07:15:00.120Z,5.79
2022-12-05T07:21:39.039Z,5.79
2022-12-05T08:00:05.164Z,6.26
2022-12-05T08:02:40.946Z,6.11
2022-12-05T08:05:32.240Z,6.24
2022-12-05T08:46:57.746Z,7.23
2022-12-05T08:51:38.222Z,7.34
2022-12-05T08:56:27.582Z,7.21
2022-12-05T09:02:44.176Z,7.66
2022-12-05T09:08:27.267Z,7.64
2022-12-05T09:11:03.946Z,7.58
2022-12-05T09:17:10.582Z,7.83
2022-12-05T09:26:15.423Z,8.16
2022-12-05T09:28:34.105Z,7.95
2022-12-05T09:32:31.534Z,7.68
2022-12-05T09:34:33.560Z,7.61
2022-12-05T09:37:48.595Z,8.00
2022-12-05T09:40:14.308Z,8.14
2022-12-05T09:50:09.032Z,8.05
2022-12-05T09:52:41.328Z,8.39
2022-12-05T09:55:16.122Z,8.37
2022-12-05T09:57:53.682Z,8.18
2022-12-05T10:00:25.067Z,8.33
2022-12-05T10:03:14.578Z,8.25
2022-12-05T10:06:01.685Z,8.31
2022-12-05T10:08:48.389Z,8.28
2022-12-05T10:11:22.452Z,8.02
2022-12-05T10:14:10.668Z,7.84
2022-12-05T10:16:42.433Z,7.83
2022-12-05T10:29:20.223Z,7.92
2022-12-05T10:31:50.915Z,8.00
2022-12-05T10:34:25.425Z,7.72
2022-12-05T10:36:59.998Z,7.74
2022-12-05T10:39:29.316Z,8.04
2022-12-05T10:41:58.197Z,8.13
2022-12-05T10:44:27.039Z,7.77
2022-12-05T10:46:55.854Z,7.77
2022-12-05T10:49:25.722Z,7.89
2022-12-05T10:51:54.813Z,7.90
2022-12-05T10:54:26.657Z,7.83
2022-12-05T10:56:55.545Z,8.05
2022-12-05T10:59:27.303Z,8.03
2022-12-05T11:02:00.232Z,7.85
2022-12-05T11:04:35.851Z,8.01
2022-12-05T11:07:06.667Z,7.98
2022-12-05T11:09:38.004Z,7.86
2022-12-05T11:12:26.181Z,7.78
2022-12-05T11:15:10.186Z,7.80
2022-12-05T11:17:40.864Z,7.85
2022-12-05T11:20:25.089Z,7.75
2022-12-05T11:22:56.526Z,7.65
2022-12-05T11:25:30.879Z,7.78
2022-12-05T11:28:04.503Z,7.76
2022-12-05T11:30:33.333Z,7.70
2022-12-05T11:33:13.989Z,7.70
2022-12-05T11:35:44.707Z,7.71
2022-12-05T11:38:15.513Z,7.74
2022-12-05T11:41:24.592Z,7.75
2022-12-05T11:44:20.737Z,7.70
2022-12-05T11:47:01.747Z,7.75
2022-12-05T11:49:49.862Z,7.72
2022-12-05T11:52:37.459Z,7.76
2022-12-05T11:55:15.732Z,7.38
2022-12-05T11:57:59.794Z,7.27
2022-12-05T12:00:37.660Z,7.45
2022-12-05T12:03:42.747Z,7.31
2022-12-05T12:06:19.388Z,7.18
2022-12-05T12:09:24.937Z,7.17
2022-12-05T12:12:02.622Z,7.27
2022-12-05T12:14:40.090Z,7.22
2022-12-05T12:17:25.532Z,7.18
2022-12-05T12:20:06.274Z,7.27
2022-12-05T12:23:08.469Z,7.26
2022-12-05T12:25:42.926Z,7.11
2022-12-05T12:28:34.175Z,7.23
2022-12-05T12:31:21.106Z,7.15
2022-12-05T12:33:55.803Z,7.27
2022-12-05T12:36:36.294Z,7.37
2022-12-05T12:39:10.476Z,7.34
2022-12-05T12:41:42.260Z,7.13
2022-12-05T12:44:45.637Z,7.28
2022-12-05T12:47:17.326Z,7.27
2022-12-05T12:50:00.813Z,7.31
2022-12-05T12:52:48.662Z,7.28
2022-12-05T12:55:29.332Z,7.29
2022-12-05T12:58:26.826Z,7.33
2022-12-05T13:04:01.532Z,7.17
2022-12-05T13:04:38.093Z,7.31
2022-12-05T13:06:48.072Z,7.02
2022-12-05T13:09:28.495Z,7.05
2022-12-05T13:11:59.233Z,7.01
2022-12-05T13:14:30.216Z,6.91
2022-12-05T13:20:17.129Z,7.01
2022-12-05T13:23:07.943Z,7.07
2022-12-05T13:25:50.751Z,7.15
2022-12-05T13:28:45.326Z,6.99
2022-12-05T13:31:32.394Z,6.68
2022-12-05T13:34:34.055Z,6.64
2022-12-05T13:37:04.682Z,6.73
2022-12-05T13:39:58.029Z,6.62
2022-12-05T13:42:31.552Z,6.64
2022-12-05T13:45:09.457Z,6.61
2022-12-05T13:48:02.015Z,6.58
2022-12-05T13:50:36.549Z,6.63
2022-12-05T13:53:27.728Z,6.47
2022-12-05T13:55:59.475Z,6.58
2022-12-05T13:58:33.749Z,6.60
2022-12-05T14:01:44.770Z,6.64
2022-12-05T14:07:41.411Z,6.56
2022-12-05T14:47:45.358Z,6.17
2022-12-05T14:50:25.893Z,6.29
2022-12-05T14:53:17.258Z,6.34
2022-12-05T14:55:54.407Z,6.36
2022-12-05T14:58:31.755Z,6.23
2022-12-05T15:01:03.794Z,6.29
2022-12-05T15:03:37.940Z,6.26
2022-12-05T15:06:11.653Z,6.28
2022-12-05T15:15:30.136Z,6.18
2022-12-05T15:18:28.862Z,6.13
2022-12-05T15:21:14.228Z,6.19
2022-12-05T15:27:41.535Z,6.25
2022-12-05T15:49:06.835Z,6.14
2022-12-05T15:51:38.380Z,6.16
2022-12-05T15:54:10.010Z,6.26
2022-12-05T15:56:59.898Z,6.21
2022-12-05T15:59:42.654Z,6.19
2022-12-05T16:02:20.617Z,6.18
2022-12-05T16:04:52.306Z,6.24
2022-12-05T16:07:23.786Z,6.09
2022-12-05T16:12:49.925Z,6.17
2022-12-05T16:15:33.537Z,6.06
2022-12-05T16:18:07.401Z,6.10
2022-12-05T16:20:37.948Z,6.08
2022-12-05T16:23:27.579Z,6.05
2022-12-05T16:26:17.021Z,6.00
2022-12-05T16:29:02.705Z,5.99
2022-12-05T16:31:34.112Z,5.91
2022-12-05T16:34:12.159Z,6.01
2022-12-05T16:37:07.138Z,5.97
2022-12-05T16:39:37.178Z,5.99
2022-12-05T16:42:13.522Z,5.89
2022-12-05T16:44:52.192Z,5.92
2022-12-05T16:47:26.508Z,5.85
2022-12-05T16:49:55.196Z,5.66
2022-12-05T16:52:28.669Z,5.67
2022-12-05T16:54:59.152Z,5.64
2022-12-05T16:57:27.940Z,5.69
2022-12-05T16:59:57.976Z,5.71
2022-12-05T17:02:26.728Z,5.79
2022-12-05T17:04:55.494Z,5.77
2022-12-05T17:07:33.872Z,5.65
2022-12-05T17:10:00.650Z,5.68
2022-12-05T17:12:32.741Z,5.79
2022-12-05T17:15:02.038Z,5.79
2022-12-05T17:17:34.002Z,5.84
2022-12-05T17:20:02.833Z,5.82
2022-12-05T17:22:33.880Z,5.85
2022-12-05T17:28:13.111Z,5.92
2022-12-05T17:30:44.736Z,5.93
2022-12-05T17:33:16.945Z,5.93
2022-12-05T17:35:47.029Z,5.89
2022-12-05T17:38:15.792Z,5.97
2022-12-05T17:40:47.072Z,5.93
2022-12-05T17:43:24.742Z,5.71
2022-12-05T17:45:49.266Z,6.07
2022-12-05T17:48:18.379Z,5.97
2022-12-05T17:50:50.089Z,6.01
2022-12-05T17:53:22.261Z,6.03
2022-12-05T18:00:12.115Z,6.04
2022-12-05T18:05:29.455Z,6.23
2022-12-05T18:08:11.800Z,6.24
2022-12-05T18:17:22.464Z,6.28
2022-12-05T18:19:51.281Z,6.25
2022-12-05T18:22:21.738Z,6.25
2022-12-05T18:25:00.450Z,6.26
2022-12-05T18:27:37.469Z,6.22
2022-12-05T18:33:27.417Z,6.23
2022-12-05T18:49:38.690Z,6.24
2022-12-05T18:52:07.568Z,6.12
2022-12-05T19:30:07.937Z,6.20
2022-12-05T19:42:33.595Z,6.15
2022-12-05T19:51:14.924Z,6.26
2022-12-05T19:53:46.225Z,6.29
2022-12-05T19:56:18.245Z,6.29
2022-12-05T19:58:47.825Z,6.26
2022-12-05T20:01:24.043Z,6.32
2022-12-05T20:04:00.024Z,6.34
2022-12-05T20:06:40.584Z,6.31
2022-12-05T20:09:38.338Z,6.32
2022-12-05T20:12:22.147Z,6.26
2022-12-05T20:18:02.435Z,6.19
2022-12-05T20:20:37.917Z,6.26
2022-12-05T20:23:21.934Z,6.22
2022-12-05T20:25:50.649Z,6.26
2022-12-05T20:28:46.755Z,6.34
2022-12-05T20:35:29.112Z,6.38
2022-12-05T20:37:11.116Z,6.25
2022-12-05T20:40:03.239Z,6.25
2022-12-05T20:42:46.544Z,6.17
2022-12-05T20:45:25.325Z,5.99
2022-12-05T20:48:48.153Z,6.03
2022-12-05T20:51:28.285Z,6.01
2022-12-05T20:53:58.839Z,5.85
2022-12-05T20:56:31.841Z,5.71
2022-12-05T21:01:50.177Z,5.72
2022-12-05T21:04:22.346Z,5.87
2022-12-05T21:06:51.212Z,5.90
2022-12-05T21:09:21.982Z,5.88
2022-12-05T21:11:53.249Z,5.88
2022-12-05T21:14:22.146Z,5.92
2022-12-05T21:16:52.561Z,5.87
2022-12-05T21:19:23.592Z,5.78
2022-12-05T21:21:54.125Z,5.83
2022-12-05T21:24:22.991Z,5.87
2022-12-05T21:27:26.862Z,5.82
2022-12-05T21:29:34.697Z,5.82
2022-12-05T21:32:07.969Z,5.90
2022-12-05T21:34:43.505Z,5.98
2022-12-05T21:37:14.795Z,5.98
2022-12-05T21:39:46.892Z,5.99
2022-12-05T21:42:25.523Z,5.97
2022-12-05T21:44:51.221Z,5.94
2022-12-05T21:47:19.977Z,6.06
2022-12-05T21:49:48.784Z,5.99
2022-12-05T21:52:20.509Z,5.98
2022-12-05T21:54:49.660Z,6.02
2022-12-05T21:57:18.540Z,5.96
2022-12-05T21:59:50.166Z,6.07
2022-12-05T22:02:27.800Z,6.00
2022-12-05T22:04:58.274Z,5.85
2022-12-05T22:07:26.970Z,5.91
2022-12-05T22:09:58.428Z,5.98
2022-12-05T22:12:27.333Z,6.09
2022-12-05T22:14:56.074Z,5.98
2022-12-05T22:17:31.303Z,5.93
2022-12-05T22:20:01.709Z,5.92
2022-12-05T22:22:30.556Z,5.99
2022-12-05T22:24:59.538Z,5.98
2022-12-05T22:27:29.879Z,5.95
2022-12-05T22:30:03.617Z,6.07
2022-12-05T22:32:33.803Z,6.00
2022-12-05T22:35:12.869Z,6.01
2022-12-05T22:37:41.590Z,6.07
2022-12-05T22:40:10.590Z,5.91
2022-12-05T22:42:39.649Z,5.94
2022-12-05T22:45:12.083Z,6.08
2022-12-05T22:47:47.050Z,6.05
2022-12-05T22:50:24.302Z,6.17
2022-12-05T22:52:59.317Z,6.06
2022-12-05T22:55:28.062Z,6.18
2022-12-05T22:57:58.258Z,6.17
2022-12-05T23:00:26.906Z,6.23
2022-12-05T23:02:55.711Z,6.17
2022-12-05T23:05:25.784Z,6.10
2022-12-05T23:07:54.618Z,6.24
2022-12-05T23:10:23.372Z,6.28
2022-12-05T23:12:52.237Z,6.39
2022-12-05T23:15:22.648Z,6.39
2022-12-05T23:17:51.514Z,6.45
2022-12-05T23:20:20.171Z,6.45
2022-12-05T23:22:48.814Z,6.41
2022-12-05T23:25:18.648Z,6.18
2022-12-05T23:27:47.219Z,6.22
2022-12-05T23:30:16.188Z,6.18
2022-12-05T23:32:44.783Z,6.08
2022-12-05T23:35:13.534Z,6.17
2022-12-05T23:37:42.233Z,6.17
2022-12-05T23:40:11.187Z,6.08
2022-12-05T23:42:39.931Z,6.13
2022-12-05T23:45:09.006Z,6.03
2022-12-05T23:47:37.735Z,6.05
2022-12-05T23:50:11.235Z,6.02
2022-12-05T23:52:39.794Z,6.12
2022-12-05T23:55:09.093Z,6.17
2022-12-05T23:57:38.749Z,6.20
